Time;durP1;ratioP1;P1;durP2;ratioP2;P2;SDS_P1;SDS_P2;PMS_P1;PMS_P2;Temp;Humidity;BMP_temperature;BMP_pressure;BME280_temperature;BME280_humidity;BME280_pressure;Samples;Min_cycle;Max_cycle;Signal;HPM_P1;HPM_P2
2021/03/23 00:00:41;;;;;;;73.50;36.08;;;;;;;;;;5014475;28;20074;-60
2021/03/23 00:03:29;;;;;;;64.03;33.00;;;;;;;;;;5029678;28;20026;-60
2021/03/23 00:05:55;;;;;;;56.92;29.05;;;;;;;;;;5013496;28;20121;-60
2021/03/23 00:08:21;;;;;;;61.40;31.63;;;;;;;;;;5014069;28;20018;-60
2021/03/23 00:10:49;;;;;;;64.88;33.25;;;;;;;;;;5013783;28;20037;-60
2021/03/23 00:13:14;;;;;;;72.05;35.13;;;;;;;;;;5013822;28;20018;-60
2021/03/23 00:15:41;;;;;;;71.63;36.40;;;;;;;;;;5013940;28;20026;-60
2021/03/23 00:18:07;;;;;;;75.30;36.28;;;;;;;;;;5013670;28;20041;-61
2021/03/23 00:20:33;;;;;;;80.72;39.70;;;;;;;;;;5013592;28;20044;-61
2021/03/23 00:22:59;;;;;;;94.13;44.97;;;;;;;;;;5013616;28;20021;-61
2021/03/23 00:25:24;;;;;;;81.57;41.45;;;;;;;;;;5013493;28;20053;-61
2021/03/23 00:27:50;;;;;;;79.32;39.80;;;;;;;;;;5029093;28;20048;-61
2021/03/23 00:30:16;;;;;;;73.85;35.95;;;;;;;;;;5028958;28;20034;-61
2021/03/23 00:32:41;;;;;;;76.63;38.40;;;;;;;;;;5013929;28;20105;-61
2021/03/23 00:35:07;;;;;;;76.03;37.67;;;;;;;;;;5013568;28;20022;-61
2021/03/23 00:37:34;;;;;;;76.78;36.42;;;;;;;;;;5013938;28;20030;-61
2021/03/23 00:40:01;;;;;;;71.53;35.13;;;;;;;;;;5013977;28;20034;-61
2021/03/23 00:42:27;;;;;;;74.00;36.80;;;;;;;;;;5013703;28;20454;-61
2021/03/23 00:44:52;;;;;;;74.00;37.08;;;;;;;;;;4995766;28;20037;-61
2021/03/23 00:47:18;;;;;;;79.38;37.40;;;;;;;;;;5013551;28;20021;-61
2021/03/23 00:49:43;;;;;;;78.75;38.05;;;;;;;;;;5013675;28;20029;-61
2021/03/23 00:52:09;;;;;;;73.70;36.63;;;;;;;;;;5013554;28;20470;-61
2021/03/23 00:54:35;;;;;;;71.32;35.45;;;;;;;;;;5013707;28;20061;-61
2021/03/23 00:57:07;;;;;;;76.00;36.63;;;;;;;;;;5013667;28;20347;-61
2021/03/23 00:59:41;;;;;;;84.15;38.67;;;;;;;;;;5028574;28;20061;-61
2021/03/23 01:02:08;;;;;;;87.15;39.25;;;;;;;;;;5013683;28;20028;-61
2021/03/23 01:04:41;;;;;;;81.20;39.28;;;;;;;;;;5013716;28;20144;-61
2021/03/23 01:07:15;;;;;;;87.93;40.60;;;;;;;;;;5013114;28;20033;-61
2021/03/23 01:09:42;;;;;;;78.57;39.13;;;;;;;;;;5028538;28;20034;-63
2021/03/23 01:12:09;;;;;;;89.13;40.95;;;;;;;;;;5013028;28;20109;-63
2021/03/23 01:14:35;;;;;;;83.88;39.42;;;;;;;;;;5013352;28;20405;-63
2021/03/23 01:17:01;;;;;;;89.00;42.38;;;;;;;;;;5012875;28;20049;-63
2021/03/23 01:19:27;;;;;;;91.90;43.78;;;;;;;;;;5016738;28;20038;-63
2021/03/23 01:21:52;;;;;;;96.90;45.72;;;;;;;;;;5017052;28;20052;-63
2021/03/23 01:24:18;;;;;;;102.15;44.90;;;;;;;;;;5017094;28;20084;-63
2021/03/23 01:26:43;;;;;;;96.05;45.80;;;;;;;;;;5017010;28;20022;-63
2021/03/23 01:29:09;;;;;;;99.78;45.58;;;;;;;;;;5017026;28;20029;-63
2021/03/23 01:31:34;;;;;;;100.65;46.25;;;;;;;;;;5017201;28;20025;-63
2021/03/23 01:34:00;;;;;;;97.90;46.85;;;;;;;;;;4999765;28;20038;-63
2021/03/23 01:36:25;;;;;;;98.00;45.00;;;;;;;;;;5032337;28;20021;-63
2021/03/23 01:38:51;;;;;;;98.07;45.30;;;;;;;;;;5032299;28;20042;-63
2021/03/23 01:41:16;;;;;;;96.63;45.63;;;;;;;;;;4999387;28;20076;-63
2021/03/23 01:43:42;;;;;;;98.22;43.95;;;;;;;;;;4999033;28;20034;-63
2021/03/23 01:46:26;;;;;;;89.65;43.10;;;;;;;;;;5016959;28;20014;-63
2021/03/23 01:48:51;;;;;;;92.82;43.67;;;;;;;;;;5016681;28;20018;-63
2021/03/23 01:51:17;;;;;;;92.32;44.53;;;;;;;;;;5016844;28;20025;-63
2021/03/23 01:53:53;;;;;;;97.72;46.47;;;;;;;;;;5016930;28;20041;-63
2021/03/23 01:56:18;;;;;;;109.88;50.53;;;;;;;;;;5016758;28;20034;-63
2021/03/23 01:58:45;;;;;;;110.47;50.42;;;;;;;;;;5016546;28;20029;-63
2021/03/23 02:01:12;;;;;;;108.00;51.20;;;;;;;;;;5016486;28;20044;-63
2021/03/23 02:03:38;;;;;;;112.85;53.97;;;;;;;;;;5016499;28;20076;-63
2021/03/23 02:06:08;;;;;;;;;;;;;;;;;;5017009;28;20568;-63
2021/03/23 02:08:37;;;;;;;108.93;50.47;;;;;;;;;;5031765;28;19910;-63
2021/03/23 02:11:02;;;;;;;105.05;50.92;;;;;;;;;;5016366;28;20047;-63
2021/03/23 02:13:29;;;;;;;115.40;51.72;;;;;;;;;;5016311;28;20544;-63
2021/03/23 02:15:54;;;;;;;108.15;51.58;;;;;;;;;;5016240;28;20068;-63
2021/03/23 02:18:22;;;;;;;110.28;51.95;;;;;;;;;;5015888;28;20042;-63
2021/03/23 02:21:03;;;;;;;108.85;51.42;;;;;;;;;;5014945;28;20057;-63
2021/03/23 02:23:33;;;;;;;101.05;50.42;;;;;;;;;;5015752;28;20057;-60
2021/03/23 02:26:00;;;;;;;106.72;50.13;;;;;;;;;;5016547;28;20045;-61
2021/03/23 02:28:25;;;;;;;102.03;51.05;;;;;;;;;;4997950;28;20026;-60
2021/03/23 02:30:57;;;;;;;103.10;49.38;;;;;;;;;;5015749;28;20379;-60
2021/03/23 02:33:23;;;;;;;97.18;47.90;;;;;;;;;;4998543;28;20029;-60
2021/03/23 02:35:48;;;;;;;102.13;49.33;;;;;;;;;;5015883;28;20036;-61
2021/03/23 02:38:14;;;;;;;102.80;48.90;;;;;;;;;;5015917;28;20061;-61
2021/03/23 02:40:41;;;;;;;106.20;50.75;;;;;;;;;;5015752;28;20030;-60
2021/03/23 02:43:07;;;;;;;103.10;50.03;;;;;;;;;;4998241;28;20033;-61
2021/03/23 02:45:32;;;;;;;104.50;50.80;;;;;;;;;;5015487;28;20040;-61
2021/03/23 02:47:58;;;;;;;101.70;48.80;;;;;;;;;;5015536;28;20056;-61
2021/03/23 02:50:23;;;;;;;106.38;50.72;;;;;;;;;;5015587;28;20397;-61
2021/03/23 02:52:49;;;;;;;106.65;51.17;;;;;;;;;;5015701;28;20049;-61
2021/03/23 02:55:14;;;;;;;100.75;50.30;;;;;;;;;;5015633;28;20056;-60
2021/03/23 02:57:40;;;;;;;101.38;48.63;;;;;;;;;;5015819;28;20033;-61
2021/03/23 03:00:07;;;;;;;100.07;50.47;;;;;;;;;;5015656;28;20030;-61
2021/03/23 03:02:33;;;;;;;102.45;51.30;;;;;;;;;;5014869;28;20029;-61
2021/03/23 03:05:01;;;;;;;99.43;50.20;;;;;;;;;;5015016;28;20093;-60
2021/03/23 03:07:26;;;;;;;104.13;49.60;;;;;;;;;;4997921;28;20033;-61
2021/03/23 03:09:52;;;;;;;99.50;48.78;;;;;;;;;;5030504;28;20022;-61
2021/03/23 03:12:17;;;;;;;92.10;46.78;;;;;;;;;;5015261;28;20018;-61
2021/03/23 03:14:44;;;;;;;92.07;46.72;;;;;;;;;;5015721;28;20018;-61
2021/03/23 03:17:10;;;;;;;92.60;47.30;;;;;;;;;;5014197;28;20108;-61
2021/03/23 03:19:36;;;;;;;98.28;48.28;;;;;;;;;;5014867;28;20502;-60
2021/03/23 03:22:02;;;;;;;104.85;48.65;;;;;;;;;;5030164;28;20034;-61
2021/03/23 03:24:28;;;;;;;104.57;48.47;;;;;;;;;;5014862;28;20485;-60
2021/03/23 03:26:53;;;;;;;95.97;48.00;;;;;;;;;;4997224;28;20481;-61
2021/03/23 03:29:19;;;;;;;104.68;50.13;;;;;;;;;;5015188;28;20017;-62
2021/03/23 03:31:44;;;;;;;101.80;49.03;;;;;;;;;;5030480;28;20450;-63
2021/03/23 03:34:10;;;;;;;99.70;48.78;;;;;;;;;;4997301;28;20040;-63
2021/03/23 03:36:35;;;;;;;103.88;49.65;;;;;;;;;;5030217;28;20058;-63
2021/03/23 03:39:04;;;;;;;99.75;49.47;;;;;;;;;;5014967;28;20026;-63
2021/03/23 03:41:30;;;;;;;103.38;49.50;;;;;;;;;;5013983;28;20077;-63
2021/03/23 03:43:56;;;;;;;98.82;48.13;;;;;;;;;;4996921;28;20029;-63
2021/03/23 03:46:21;;;;;;;101.93;47.78;;;;;;;;;;5014503;28;20045;-63
2021/03/23 03:48:47;;;;;;;99.05;47.83;;;;;;;;;;5014557;28;20025;-63
2021/03/23 03:51:12;;;;;;;96.30;47.42;;;;;;;;;;4997023;28;20034;-63
2021/03/23 03:53:40;;;;;;;104.85;48.97;;;;;;;;;;5014681;28;20022;-63
2021/03/23 03:56:08;;;;;;;104.00;51.00;;;;;;;;;;5014497;28;20398;-63
2021/03/23 03:58:34;;;;;;;105.90;49.60;;;;;;;;;;5014168;28;20036;-62
2021/03/23 04:01:01;;;;;;;103.32;48.88;;;;;;;;;;4996630;28;20060;-62
2021/03/23 04:03:28;;;;;;;101.35;48.60;;;;;;;;;;5014325;28;20107;-63
2021/03/23 04:05:54;;;;;;;102.50;48.88;;;;;;;;;;5014152;28;20048;-63
2021/03/23 04:08:25;;;;;;;109.07;50.60;;;;;;;;;;5014353;28;20485;-63
2021/03/23 04:10:51;;;;;;;111.35;50.10;;;;;;;;;;5013921;28;20026;-63
2021/03/23 04:13:17;;;;;;;100.40;47.83;;;;;;;;;;5012887;28;20018;-63
2021/03/23 04:15:43;;;;;;;106.13;49.20;;;;;;;;;;5014085;28;20065;-63
2021/03/23 04:18:10;;;;;;;103.40;48.50;;;;;;;;;;4996351;28;20046;-63
2021/03/23 04:20:35;;;;;;;105.32;51.38;;;;;;;;;;5013833;28;20061;-63
2021/03/23 04:23:01;;;;;;;109.45;50.92;;;;;;;;;;5014088;28;20029;-63
2021/03/23 04:25:29;;;;;;;107.40;50.30;;;;;;;;;;4996597;28;20072;-63
2021/03/23 04:27:55;;;;;;;102.13;48.88;;;;;;;;;;5028995;28;20018;-63
2021/03/23 04:30:21;;;;;;;96.50;48.45;;;;;;;;;;5029336;28;20356;-63
2021/03/23 04:32:47;;;;;;;110.47;50.78;;;;;;;;;;5013735;28;20037;-62
2021/03/23 04:35:24;;;;;;;106.32;49.72;;;;;;;;;;5013836;28;20485;-63
2021/03/23 04:37:50;;;;;;;109.82;52.17;;;;;;;;;;5028759;28;20022;-63
2021/03/23 04:40:15;;;;;;;116.47;53.30;;;;;;;;;;5013899;28;20076;-63
2021/03/23 04:42:41;;;;;;;108.90;53.00;;;;;;;;;;5014083;28;20087;-62
2021/03/23 04:45:07;;;;;;;107.60;50.88;;;;;;;;;;5013765;28;20101;-63
2021/03/23 04:47:32;;;;;;;98.75;50.30;;;;;;;;;;5013910;28;20026;-62
2021/03/23 04:49:58;;;;;;;106.78;51.40;;;;;;;;;;5013133;28;20065;-63
2021/03/23 04:52:34;;;;;;;101.60;49.70;;;;;;;;;;5028729;28;20018;-63
2021/03/23 04:55:00;;;;;;;109.28;50.85;;;;;;;;;;5028794;28;20057;-63
2021/03/23 04:57:26;;;;;;;100.22;48.05;;;;;;;;;;5028983;28;20026;-63
2021/03/23 04:59:52;;;;;;;103.30;51.33;;;;;;;;;;5013628;28;20029;-62
2021/03/23 05:02:18;;;;;;;105.50;50.20;;;;;;;;;;5013746;28;20104;-61
2021/03/23 05:04:43;;;;;;;93.63;48.10;;;;;;;;;;5029124;28;20434;-61
2021/03/23 05:07:09;;;;;;;104.88;49.50;;;;;;;;;;5028711;28;20033;-61
2021/03/23 05:09:34;;;;;;;103.45;50.22;;;;;;;;;;5013621;28;20470;-61
2021/03/23 05:12:00;;;;;;;110.22;51.03;;;;;;;;;;5013440;28;20021;-61
2021/03/23 05:14:25;;;;;;;107.97;52.03;;;;;;;;;;5013611;28;20054;-61
2021/03/23 05:16:51;;;;;;;110.72;51.50;;;;;;;;;;5013007;28;20125;-61
2021/03/23 05:19:16;;;;;;;119.78;53.95;;;;;;;;;;5029023;28;20038;-61
2021/03/23 05:21:43;;;;;;;179.60;86.35;;;;;;;;;;5013682;28;20415;-61
2021/03/23 05:24:09;;;;;;;205.90;104.30;;;;;;;;;;5013235;28;20081;-61
2021/03/23 05:26:35;;;;;;;171.10;89.28;;;;;;;;;;5013373;28;20014;-61
2021/03/23 05:29:02;;;;;;;159.55;82.57;;;;;;;;;;5013234;28;20522;-61
2021/03/23 05:31:27;;;;;;;142.43;72.30;;;;;;;;;;5013447;28;20057;-60
2021/03/23 05:33:53;;;;;;;116.38;60.50;;;;;;;;;;5013122;28;20058;-60
2021/03/23 05:36:20;;;;;;;119.10;59.45;;;;;;;;;;5013338;28;20100;-60
2021/03/23 05:38:46;;;;;;;117.05;58.33;;;;;;;;;;5013238;28;20030;-63
2021/03/23 05:41:30;;;;;;;114.88;59.40;;;;;;;;;;5012875;28;20039;-60
2021/03/23 05:44:03;;;;;;;124.53;61.20;;;;;;;;;;5012947;28;20484;-60
2021/03/23 05:46:38;;;;;;;119.97;57.17;;;;;;;;;;5012899;28;20041;-61
2021/03/23 05:49:22;;;;;;;119.15;58.95;;;;;;;;;;5013200;28;20034;-61
2021/03/23 05:51:56;;;;;;;118.25;60.05;;;;;;;;;;5013323;28;20080;-60
2021/03/23 05:54:29;;;;;;;116.55;60.50;;;;;;;;;;5012783;28;20594;-61
2021/03/23 05:56:58;;;;;;;116.78;59.78;;;;;;;;;;5012981;28;20038;-61
2021/03/23 05:59:23;;;;;;;113.47;56.75;;;;;;;;;;5012952;28;20033;-61
2021/03/23 06:01:55;;;;;;;115.72;56.13;;;;;;;;;;5013037;28;20038;-61
2021/03/23 06:04:26;;;;;;;114.68;58.47;;;;;;;;;;5014305;28;20060;-61
2021/03/23 06:07:04;;;;;;;116.43;58.83;;;;;;;;;;5016456;28;20477;-61
2021/03/23 06:09:32;;;;;;;114.50;59.42;;;;;;;;;;5031614;28;20026;-61
2021/03/23 06:12:03;;;;;;;113.15;57.13;;;;;;;;;;5016205;28;20130;-60
2021/03/23 06:14:47;;;;;;;115.68;57.13;;;;;;;;;;5016394;28;20037;-61
2021/03/23 06:17:15;;;;;;;96.40;48.25;;;;;;;;;;5015824;28;20034;-61
2021/03/23 06:19:41;;;;;;;94.47;46.42;;;;;;;;;;4998484;28;20040;-61
2021/03/23 06:22:09;;;;;;;97.45;48.47;;;;;;;;;;5015968;28;20022;-61
2021/03/23 06:24:41;;;;;;;100.75;48.53;;;;;;;;;;4998360;28;20073;-61
2021/03/23 06:27:25;;;;;;;103.47;47.60;;;;;;;;;;5016184;28;20026;-60
2021/03/23 06:30:09;;;;;;;97.13;46.08;;;;;;;;;;5016173;28;20121;-61
2021/03/23 06:32:35;;;;;;;93.88;45.28;;;;;;;;;;5015841;28;20034;-61
2021/03/23 06:35:02;;;;;;;90.07;46.47;;;;;;;;;;4998461;28;20141;-61
2021/03/23 06:37:37;;;;;;;63.85;30.45;;;;;;;;;;5015910;28;20481;-61
2021/03/23 06:40:30;;;;;;;68.68;31.95;;;;;;;;;;5015984;28;20041;-60
2021/03/23 06:43:05;;;;;;;67.97;31.85;;;;;;;;;;5014894;28;20042;-61
2021/03/23 06:45:36;;;;;;;61.97;29.25;;;;;;;;;;5030885;28;20456;-61
2021/03/23 06:48:37;;;;;;;63.08;30.42;;;;;;;;;;5015442;28;20030;-61
2021/03/23 06:51:14;;;;;;;62.60;29.50;;;;;;;;;;4993960;28;20081;-61
2021/03/23 06:53:41;;;;;;;53.42;27.67;;;;;;;;;;5012805;28;20517;-60
2021/03/23 06:56:20;;;;;;;51.22;24.02;;;;;;;;;;4997596;28;20018;-61
2021/03/23 06:58:46;;;;;;;52.00;24.75;;;;;;;;;;5015343;28;20026;-61
2021/03/23 07:01:12;;;;;;;58.33;27.75;;;;;;;;;;5015267;28;20014;-61
2021/03/23 07:03:39;;;;;;;63.00;28.70;;;;;;;;;;4997604;28;20026;-61
2021/03/23 07:06:21;;;;;;;50.70;22.35;;;;;;;;;;5014967;28;20382;-60
2021/03/23 07:09:07;;;;;;;59.15;27.05;;;;;;;;;;5015006;28;20018;-61
2021/03/23 07:11:53;;;;;;;48.30;23.25;;;;;;;;;;5014854;28;20038;-60
2021/03/23 07:14:32;;;;;;;43.97;19.10;;;;;;;;;;5015091;28;20022;-56
2021/03/23 07:17:11;;;;;;;55.83;26.85;;;;;;;;;;5014510;28;20045;-64
2021/03/23 07:19:57;;;;;;;46.33;23.05;;;;;;;;;;5015206;28;20478;-64
2021/03/23 07:22:37;;;;;;;44.22;21.80;;;;;;;;;;5015848;28;20034;-64
2021/03/23 07:25:06;;;;;;;38.15;19.67;;;;;;;;;;5012954;28;20038;-63
2021/03/23 07:27:32;;;;;;;34.20;18.02;;;;;;;;;;5011439;28;20489;-63
2021/03/23 07:30:19;;;;;;;29.95;15.50;;;;;;;;;;5029283;28;20026;-63
2021/03/23 07:32:48;;;;;;;34.78;16.35;;;;;;;;;;5013275;28;20066;-64
2021/03/23 07:35:25;;;;;;;34.00;16.73;;;;;;;;;;5014693;28;20037;-63
2021/03/23 07:38:06;;;;;;;44.05;20.10;;;;;;;;;;5014632;28;20049;-63
2021/03/23 07:40:32;;;;;;;33.38;16.35;;;;;;;;;;5014438;28;20117;-63
2021/03/23 07:43:02;;;;;;;29.48;14.63;;;;;;;;;;5014359;28;20149;-63
2021/03/23 07:45:29;;;;;;;27.42;13.27;;;;;;;;;;4992576;28;20026;-63
2021/03/23 07:48:11;;;;;;;23.98;11.50;;;;;;;;;;5013496;28;20048;-63
2021/03/23 07:50:39;;;;;;;24.23;12.85;;;;;;;;;;5009108;28;20046;-63
2021/03/23 07:53:12;;;;;;;21.42;11.82;;;;;;;;;;5014330;28;20054;-62
2021/03/23 07:55:37;;;;;;;21.08;11.65;;;;;;;;;;5024085;28;20033;-63
2021/03/23 07:58:06;;;;;;;23.90;12.35;;;;;;;;;;5014116;28;20045;-62
2021/03/23 08:00:38;;;;;;;21.15;11.65;;;;;;;;;;5029259;28;20034;-63
2021/03/23 08:03:06;;;;;;;20.92;11.35;;;;;;;;;;5014576;28;20069;-63
2021/03/23 08:05:44;;;;;;;23.67;11.70;;;;;;;;;;4994274;28;20018;-59
2021/03/23 08:08:28;;;;;;;22.05;11.30;;;;;;;;;;5011635;28;20022;-60
2021/03/23 08:10:58;;;;;;;21.48;11.60;;;;;;;;;;5012483;28;20521;-60
2021/03/23 08:13:36;;;;;;;19.15;10.07;;;;;;;;;;5012466;28;20022;-59
2021/03/23 08:16:02;;;;;;;19.10;10.40;;;;;;;;;;5010443;28;20049;-60
2021/03/23 08:18:48;;;;;;;19.50;10.30;;;;;;;;;;5012193;28;20057;-59
2021/03/23 08:21:33;;;;;;;21.75;10.57;;;;;;;;;;5011925;28;20029;-59
2021/03/23 08:24:11;;;;;;;20.15;9.80;;;;;;;;;;5027466;28;20029;-59
2021/03/23 08:26:46;;;;;;;19.90;10.90;;;;;;;;;;5011485;28;20030;-59
2021/03/23 08:29:14;;;;;;;19.63;9.88;;;;;;;;;;5012978;28;20076;-59
2021/03/23 08:31:59;;;;;;;18.92;9.40;;;;;;;;;;5013595;28;20060;-59
2021/03/23 08:34:36;;;;;;;16.52;8.68;;;;;;;;;;5013671;28;20030;-59
2021/03/23 08:37:05;;;;;;;15.20;8.43;;;;;;;;;;5013678;28;20037;-59
2021/03/23 08:39:34;;;;;;;14.90;8.20;;;;;;;;;;4996264;28;20028;-59
2021/03/23 08:42:02;;;;;;;14.93;7.80;;;;;;;;;;5013556;28;20025;-59
2021/03/23 08:44:32;;;;;;;15.25;8.40;;;;;;;;;;4979700;28;20018;-59
2021/03/23 08:47:01;;;;;;;21.80;10.00;;;;;;;;;;4995924;28;20394;-59
2021/03/23 08:49:26;;;;;;;16.50;8.48;;;;;;;;;;5013459;28;20010;-59
2021/03/23 08:51:52;;;;;;;11.63;7.55;;;;;;;;;;5013401;28;20497;-59
2021/03/23 08:54:36;;;;;;;21.10;9.85;;;;;;;;;;5013460;28;20030;-59
2021/03/23 08:57:01;;;;;;;14.48;7.78;;;;;;;;;;5013461;28;20030;-59
2021/03/23 08:59:33;;;;;;;13.32;7.30;;;;;;;;;;5013298;28;20013;-59
2021/03/23 09:02:00;;;;;;;10.88;6.13;;;;;;;;;;4995750;28;20045;-59
2021/03/23 09:04:34;;;;;;;14.35;8.18;;;;;;;;;;5013169;28;20025;-59
2021/03/23 09:07:08;;;;;;;10.30;6.05;;;;;;;;;;5013260;28;20025;-59
2021/03/23 09:09:35;;;;;;;13.73;7.32;;;;;;;;;;5013167;28;20417;-59
2021/03/23 09:12:02;;;;;;;14.45;7.93;;;;;;;;;;5013214;28;20014;-59
2021/03/23 09:14:30;;;;;;;11.65;6.43;;;;;;;;;;4995795;28;20065;-59
2021/03/23 09:16:59;;;;;;;80.03;27.63;;;;;;;;;;5012704;28;20045;-60
2021/03/23 09:19:45;;;;;;;17.50;9.50;;;;;;;;;;5013481;28;20041;-59
2021/03/23 09:22:10;;;;;;;13.38;7.03;;;;;;;;;;5012563;28;20045;-60
2021/03/23 09:24:37;;;;;;;11.50;6.55;;;;;;;;;;5013257;28;20026;-59
2021/03/23 09:27:08;;;;;;;81.80;24.25;;;;;;;;;;5013014;28;20466;-59
2021/03/23 09:29:39;;;;;;;11.25;6.05;;;;;;;;;;5012867;28;20030;-59
2021/03/23 09:32:09;;;;;;;10.85;5.63;;;;;;;;;;5013014;28;20367;-59
2021/03/23 09:35:11;;;;;;;9.95;6.45;;;;;;;;;;5012995;28;20393;-59
2021/03/23 09:37:40;;;;;;;11.25;6.32;;;;;;;;;;4952604;28;20046;-59
2021/03/23 09:40:20;;;;;;;72.50;22.40;;;;;;;;;;5004853;28;20040;-59
2021/03/23 09:42:47;;;;;;;22.50;9.60;;;;;;;;;;5016774;28;20052;-59
2021/03/23 09:45:28;;;;;;;204.77;53.78;;;;;;;;;;5016775;28;20088;-59
2021/03/23 09:47:53;;;;;;;;;;;;;;;;;;5016522;28;20034;-59
2021/03/23 09:50:31;;;;;;;16.23;8.73;;;;;;;;;;5016685;28;20420;-59
2021/03/23 09:53:00;;;;;;;14.05;6.95;;;;;;;;;;5015565;28;20042;-59
2021/03/23 09:55:26;;;;;;;19.95;7.95;;;;;;;;;;5047269;28;20465;-59
2021/03/23 09:57:54;;;;;;;173.38;48.50;;;;;;;;;;5016562;28;20028;-59
2021/03/23 10:00:23;;;;;;;18.45;10.13;;;;;;;;;;5016418;28;20022;-59
2021/03/23 10:02:49;;;;;;;23.05;10.43;;;;;;;;;;5031683;28;20366;-59
2021/03/23 10:05:34;;;;;;;91.35;28.98;;;;;;;;;;5016201;28;20124;-59
2021/03/23 10:08:12;;;;;;;73.07;28.95;;;;;;;;;;5016306;28;20032;-59
2021/03/23 10:10:37;;;;;;;13.88;8.88;;;;;;;;;;5016364;28;20030;-59
2021/03/23 10:13:24;;;;;;;11.82;6.53;;;;;;;;;;5016302;28;20053;-59
2021/03/23 10:15:49;;;;;;;16.02;8.50;;;;;;;;;;5031427;28;20394;-59
2021/03/23 10:18:23;;;;;;;14.32;7.53;;;;;;;;;;5015783;28;20056;-59
2021/03/23 10:20:59;;;;;;;12.68;7.13;;;;;;;;;;5031306;28;20485;-59
2021/03/23 10:23:25;;;;;;;11.57;6.93;;;;;;;;;;5015986;28;20121;-59
2021/03/23 10:25:51;;;;;;;13.38;6.97;;;;;;;;;;5031194;28;20026;-59
2021/03/23 10:28:25;;;;;;;10.25;6.22;;;;;;;;;;5014346;28;20046;-59
2021/03/23 10:30:58;;;;;;;9.20;6.00;;;;;;;;;;4990366;28;20480;-60
2021/03/23 10:33:28;;;;;;;8.70;5.38;;;;;;;;;;5014667;28;20500;-59
2021/03/23 10:35:56;;;;;;;8.77;5.88;;;;;;;;;;4998253;28;20125;-59
2021/03/23 10:38:33;;;;;;;10.98;6.38;;;;;;;;;;5015990;28;20100;-59
2021/03/23 10:41:00;;;;;;;238.05;107.35;;;;;;;;;;5015996;28;20385;-59
2021/03/23 10:43:41;;;;;;;25.08;13.23;;;;;;;;;;5016000;28;20425;-59
2021/03/23 10:46:25;;;;;;;10.52;6.30;;;;;;;;;;5016067;28;20050;-60
2021/03/23 10:48:50;;;;;;;10.25;6.40;;;;;;;;;;5015726;28;20030;-59
2021/03/23 10:51:18;;;;;;;19.90;11.13;;;;;;;;;;5015211;28;20022;-59
2021/03/23 10:54:02;;;;;;;11.88;6.95;;;;;;;;;;5030936;28;20034;-59
2021/03/23 10:56:32;;;;;;;12.10;6.88;;;;;;;;;;5015471;28;20433;-59
2021/03/23 10:59:08;;;;;;;9.95;6.15;;;;;;;;;;5031045;28;20022;-59
2021/03/23 11:01:34;;;;;;;8.27;5.47;;;;;;;;;;5015880;28;20032;-59
2021/03/23 11:04:20;;;;;;;7.68;4.60;;;;;;;;;;5030541;28;20104;-59
2021/03/23 11:06:45;;;;;;;10.98;7.65;;;;;;;;;;5015336;28;20054;-59
2021/03/23 11:09:15;;;;;;;6.55;4.72;;;;;;;;;;5015537;28;20024;-59
2021/03/23 11:11:42;;;;;;;7.30;4.45;;;;;;;;;;5015228;28;20049;-59
2021/03/23 11:14:08;;;;;;;5.45;4.03;;;;;;;;;;5015185;28;20045;-59
2021/03/23 11:16:35;;;;;;;8.63;5.82;;;;;;;;;;5014767;28;20058;-60
2021/03/23 11:19:02;;;;;;;5.85;5.30;;;;;;;;;;5015180;28;20022;-59
2021/03/23 11:21:31;;;;;;;7.97;5.38;;;;;;;;;;5015050;28;20053;-59
2021/03/23 11:23:57;;;;;;;5.57;4.47;;;;;;;;;;5014784;28;20081;-59
2021/03/23 11:26:27;;;;;;;6.97;4.68;;;;;;;;;;5014675;28;20046;-59
2021/03/23 11:28:54;;;;;;;19.70;12.15;;;;;;;;;;5014804;28;20048;-59
2021/03/23 11:31:20;;;;;;;9.13;5.72;;;;;;;;;;4997204;28;20046;-59
2021/03/23 11:33:46;;;;;;;5.40;4.20;;;;;;;;;;5014693;28;20045;-59
2021/03/23 11:36:11;;;;;;;7.00;4.38;;;;;;;;;;5014783;28;20030;-59
2021/03/23 11:38:38;;;;;;;8.57;5.63;;;;;;;;;;5029964;28;20033;-59
2021/03/23 11:41:05;;;;;;;10.43;6.53;;;;;;;;;;5014580;28;20037;-59
2021/03/23 11:43:39;;;;;;;6.82;5.15;;;;;;;;;;5014615;28;20104;-59
2021/03/23 11:46:09;;;;;;;24.63;11.60;;;;;;;;;;5029995;28;20057;-59
2021/03/23 11:48:39;;;;;;;;;;;;;;;;;;5014967;28;20025;-59
2021/03/23 11:51:05;;;;;;;10.68;6.32;;;;;;;;;;5014438;28;20416;-59
2021/03/23 11:53:31;;;;;;;7.47;4.57;;;;;;;;;;5014422;28;20046;-59
2021/03/23 11:55:57;;;;;;;6.53;4.85;;;;;;;;;;5014497;28;20394;-59
2021/03/23 11:58:25;;;;;;;8.20;5.22;;;;;;;;;;5014190;28;20018;-59
2021/03/23 12:00:51;;;;;;;12.43;6.97;;;;;;;;;;5014013;28;20621;-59
2021/03/23 12:03:16;;;;;;;175.05;60.47;;;;;;;;;;4996212;28;20022;-59
2021/03/23 12:05:42;;;;;;;16.63;8.98;;;;;;;;;;5013933;28;20433;-62
2021/03/23 12:08:17;;;;;;;9.77;5.75;;;;;;;;;;5014393;28;20084;-63
2021/03/23 12:11:02;;;;;;;24.23;10.93;;;;;;;;;;5014170;28;20045;-62
2021/03/23 12:13:28;;;;;;;18.85;10.27;;;;;;;;;;5014136;28;20030;-62
2021/03/23 12:16:00;;;;;;;26.52;12.68;;;;;;;;;;5014009;28;20026;-62
2021/03/23 12:18:25;;;;;;;20.02;9.23;;;;;;;;;;5014020;28;20048;-62
2021/03/23 12:20:57;;;;;;;39.03;17.73;;;;;;;;;;5014044;28;20030;-62
2021/03/23 12:23:24;;;;;;;383.55;118.05;;;;;;;;;;5013875;28;20172;-62
2021/03/23 12:25:49;;;;;;;22.33;11.27;;;;;;;;;;4980266;28;20030;-63
2021/03/23 12:28:15;;;;;;;83.97;25.90;;;;;;;;;;5014000;28;20397;-63
2021/03/23 12:30:40;;;;;;;251.30;109.22;;;;;;;;;;5013939;28;20024;-63
2021/03/23 12:33:06;;;;;;;17.65;10.73;;;;;;;;;;5013795;28;20057;-62
2021/03/23 12:35:31;;;;;;;135.88;41.15;;;;;;;;;;4996122;28;20080;-62
2021/03/23 12:37:58;;;;;;;29.73;12.38;;;;;;;;;;4996297;28;20038;-62
2021/03/23 12:40:25;;;;;;;13.98;6.30;;;;;;;;;;5013662;28;20034;-63
2021/03/23 12:42:53;;;;;;;9.68;5.70;;;;;;;;;;5013697;28;20096;-62
2021/03/23 12:45:21;;;;;;;18.20;7.97;;;;;;;;;;4996055;28;20061;-62
2021/03/23 12:47:46;;;;;;;13.77;7.65;;;;;;;;;;5013593;28;20049;-62
2021/03/23 12:50:13;;;;;;;9.07;5.50;;;;;;;;;;5013486;28;20053;-62
2021/03/23 12:52:39;;;;;;;9.77;6.32;;;;;;;;;;5013694;28;20438;-62
2021/03/23 12:55:04;;;;;;;49.47;17.20;;;;;;;;;;5013551;28;20054;-62
2021/03/23 12:57:31;;;;;;;14.10;7.13;;;;;;;;;;5028802;28;20473;-62
2021/03/23 12:59:58;;;;;;;277.27;87.40;;;;;;;;;;5013532;28;20022;-59
2021/03/23 13:02:25;;;;;;;22.83;12.18;;;;;;;;;;5013070;28;20040;-59
2021/03/23 13:04:51;;;;;;;19.48;8.82;;;;;;;;;;5013736;28;20108;-59
2021/03/23 13:07:22;;;;;;;13.60;7.57;;;;;;;;;;5013465;28;20536;-59
2021/03/23 13:09:49;;;;;;;12.02;6.13;;;;;;;;;;5013252;28;20022;-59
2021/03/23 13:12:15;;;;;;;13.43;7.40;;;;;;;;;;5013441;28;20069;-59
2021/03/23 13:14:41;;;;;;;19.88;9.48;;;;;;;;;;4999505;28;20033;-62
2021/03/23 13:17:08;;;;;;;16.02;7.85;;;;;;;;;;5016867;28;20037;-62
2021/03/23 13:19:34;;;;;;;57.58;16.92;;;;;;;;;;5017084;28;20060;-62
2021/03/23 13:22:01;;;;;;;313.42;72.63;;;;;;;;;;5017222;28;20548;-63
2021/03/23 13:24:32;;;;;;;23.65;10.27;;;;;;;;;;5032372;28;20034;-63
2021/03/23 13:26:58;;;;;;;12.50;8.00;;;;;;;;;;5015680;28;20030;-63
2021/03/23 13:29:24;;;;;;;11.10;7.57;;;;;;;;;;5017140;28;20041;-62
2021/03/23 13:31:50;;;;;;;22.25;9.65;;;;;;;;;;4999487;28;20034;-63
2021/03/23 13:34:23;;;;;;;88.50;25.55;;;;;;;;;;4999334;28;20462;-63
2021/03/23 13:36:56;;;;;;;117.82;34.30;;;;;;;;;;5016964;28;20473;-63
2021/03/23 13:39:27;;;;;;;16.55;7.95;;;;;;;;;;5015255;28;20026;-63
2021/03/23 13:41:57;;;;;;;13.85;7.45;;;;;;;;;;5032254;28;20037;-63
2021/03/23 13:44:32;;;;;;;11.98;7.53;;;;;;;;;;5016676;28;20421;-63
2021/03/23 13:46:57;;;;;;;15.45;7.68;;;;;;;;;;5031956;28;20065;-63
2021/03/23 13:49:23;;;;;;;168.65;43.55;;;;;;;;;;5016796;28;20018;-62
2021/03/23 13:51:50;;;;;;;14.55;7.70;;;;;;;;;;5016653;28;20025;-63
2021/03/23 13:54:16;;;;;;;8.38;6.75;;;;;;;;;;5016985;28;20033;-63
2021/03/23 13:56:41;;;;;;;14.10;7.63;;;;;;;;;;5014753;28;20026;-63
2021/03/23 13:59:07;;;;;;;15.23;9.20;;;;;;;;;;5014412;28;20131;-59
2021/03/23 14:01:33;;;;;;;18.70;9.73;;;;;;;;;;5014476;28;20021;-60
2021/03/23 14:03:58;;;;;;;12.02;7.25;;;;;;;;;;4998658;28;20041;-59
2021/03/23 14:06:26;;;;;;;10.50;6.80;;;;;;;;;;5016249;28;20026;-59
2021/03/23 14:08:52;;;;;;;12.10;7.47;;;;;;;;;;5012685;28;20025;-59
2021/03/23 14:11:19;;;;;;;48.17;17.60;;;;;;;;;;5015943;28;20052;-59
2021/03/23 14:13:44;;;;;;;82.65;30.00;;;;;;;;;;5013576;28;20370;-60
2021/03/23 14:16:10;;;;;;;10.18;7.97;;;;;;;;;;5015145;28;20105;-59
2021/03/23 14:18:36;;;;;;;18.15;9.23;;;;;;;;;;5016047;28;20074;-59
2021/03/23 14:21:01;;;;;;;151.30;45.72;;;;;;;;;;5016125;28;20033;-60
2021/03/23 14:23:39;;;;;;;407.20;120.28;;;;;;;;;;4998689;28;20490;-59
2021/03/23 14:26:05;;;;;;;26.20;12.23;;;;;;;;;;5015381;28;20038;-60
2021/03/23 14:28:32;;;;;;;14.20;8.38;;;;;;;;;;5016127;28;20056;-59
2021/03/23 14:30:59;;;;;;;10.32;7.32;;;;;;;;;;5028676;28;20410;-62